createdAt,value
2023-11-12T00:01:42.057Z,1.50
2023-11-12T00:04:13.133Z,1.50
2023-11-12T00:09:13.926Z,1.60
2023-11-12T00:11:47.803Z,1.50
2023-11-12T00:14:18.882Z,1.48
2023-11-12T00:19:19.805Z,1.52
2023-11-12T00:21:50.165Z,1.63
2023-11-12T00:24:20.784Z,1.40
2023-11-12T00:26:54.058Z,1.67
2023-11-12T00:29:24.936Z,1.63
2023-11-12T00:31:56.167Z,1.70
2023-11-12T00:34:27.407Z,1.75
2023-11-12T00:36:58.105Z,1.45
2023-11-12T00:39:28.495Z,1.70
2023-11-12T00:42:01.908Z,1.65
2023-11-12T00:44:32.470Z,1.83
2023-11-12T00:47:02.741Z,1.80
2023-11-12T00:49:33.221Z,1.47
2023-11-12T00:52:04.236Z,1.75
2023-11-12T00:54:35.346Z,1.67
2023-11-12T00:57:08.803Z,1.67
2023-11-12T00:59:39.501Z,1.60
2023-11-12T01:02:11.492Z,1.70
2023-11-12T01:04:41.823Z,1.55
2023-11-12T01:07:12.189Z,1.80
2023-11-12T01:09:42.662Z,1.73
2023-11-12T01:12:15.796Z,1.67
2023-11-12T01:14:46.237Z,1.58
2023-11-12T01:17:16.865Z,1.70
2023-11-12T01:19:47.603Z,1.52
2023-11-12T01:22:18.024Z,1.58
2023-11-12T01:24:48.706Z,1.80
2023-11-12T01:27:21.932Z,1.70
2023-11-12T01:29:52.485Z,1.60
2023-11-12T01:32:23.106Z,1.75
2023-11-12T01:34:53.458Z,1.88
2023-11-12T01:37:23.898Z,1.57
2023-11-12T01:39:54.234Z,1.60
2023-11-12T01:42:27.390Z,1.53
2023-11-12T01:44:57.795Z,1.48
2023-11-12T01:47:29.207Z,1.77
2023-11-12T01:50:00.047Z,1.70
2023-11-12T01:52:30.502Z,1.70
2023-11-12T01:55:01.445Z,1.90
2023-11-12T01:57:35.264Z,1.70
2023-11-12T02:00:12.766Z,1.58
2023-11-12T02:02:43.842Z,1.58
2023-11-12T02:05:14.393Z,2.10
2023-11-12T02:07:47.507Z,1.50
2023-11-12T02:10:18.872Z,1.80
2023-11-12T02:12:52.119Z,1.58
2023-11-12T02:15:22.616Z,1.75
2023-11-12T02:17:54.177Z,1.77
2023-11-12T02:20:24.548Z,1.90
2023-11-12T02:22:54.948Z,1.67
2023-11-12T02:25:28.311Z,1.90
2023-11-12T02:27:58.620Z,1.90
2023-11-12T02:30:28.965Z,1.87
2023-11-12T02:32:59.300Z,1.60
2023-11-12T02:35:30.977Z,1.67
2023-11-12T02:38:01.253Z,1.60
2023-11-12T02:40:34.404Z,1.40
2023-11-12T02:43:05.139Z,1.80
2023-11-12T02:45:35.411Z,1.33
2023-11-12T02:48:06.078Z,1.50
2023-11-12T02:50:37.611Z,1.63
2023-11-12T02:53:09.032Z,1.77
2023-11-12T02:55:42.303Z,1.50
2023-11-12T02:58:12.869Z,1.50
2023-11-12T03:00:43.243Z,1.50
2023-11-12T03:03:14.618Z,1.30
2023-11-12T03:05:45.406Z,1.40
2023-11-12T03:08:15.698Z,1.30
2023-11-12T03:10:48.800Z,1.67
2023-11-12T03:13:19.153Z,1.23
2023-11-12T03:15:49.812Z,1.57
2023-11-12T03:18:20.199Z,1.50
2023-11-12T03:20:50.626Z,1.40
2023-11-12T03:23:20.963Z,1.40
2023-11-12T03:25:54.357Z,1.50
2023-11-12T03:28:24.738Z,1.30
2023-11-12T03:30:55.288Z,1.50
2023-11-12T03:33:25.590Z,1.40
2023-11-12T03:35:55.905Z,1.03
2023-11-12T03:38:26.741Z,1.00
2023-11-12T03:41:00.511Z,1.17
2023-11-12T03:43:30.765Z,1.20
2023-11-12T03:46:00.999Z,1.00
2023-11-12T03:48:31.319Z,1.10
2023-11-12T03:51:01.601Z,1.30
2023-11-12T03:53:31.890Z,1.20
2023-11-12T03:56:05.259Z,1.30
2023-11-12T03:58:35.815Z,1.20
2023-11-12T04:01:06.108Z,1.20
2023-11-12T04:03:36.608Z,1.10
2023-11-12T04:06:07.678Z,1.10
2023-11-12T04:08:37.856Z,1.02
2023-11-12T04:11:11.033Z,1.17
2023-11-12T04:13:41.329Z,1.40
2023-11-12T04:16:11.624Z,1.10
2023-11-12T04:18:41.919Z,1.20
2023-11-12T04:21:12.264Z,1.10
2023-11-12T04:23:45.648Z,1.30
2023-11-12T04:26:19.866Z,1.27
2023-11-12T04:28:50.203Z,1.20
2023-11-12T04:31:20.682Z,0.93
2023-11-12T04:33:51.430Z,1.10
2023-11-12T04:36:21.681Z,1.13
2023-11-12T04:38:53.199Z,1.00
2023-11-12T04:41:26.090Z,1.10
2023-11-12T04:43:56.611Z,1.10
2023-11-12T04:46:26.881Z,1.10
2023-11-12T04:48:57.161Z,1.00
2023-11-12T04:51:28.275Z,1.00
2023-11-12T04:56:31.049Z,1.00
2023-11-12T04:59:01.271Z,1.08
2023-11-12T05:01:31.966Z,1.10
2023-11-12T05:04:02.371Z,1.00
2023-11-12T05:06:32.655Z,1.10
2023-11-12T05:09:03.015Z,1.05
2023-11-12T05:11:35.915Z,1.00
2023-11-12T05:14:06.112Z,1.00
2023-11-12T05:16:36.340Z,1.15
2023-11-12T05:19:08.254Z,1.30
2023-11-12T05:21:38.580Z,1.00
2023-11-12T05:24:10.104Z,1.10
2023-11-12T05:26:43.493Z,1.00
2023-11-12T05:29:13.919Z,1.00
2023-11-12T05:31:44.152Z,0.90
2023-11-12T05:34:14.688Z,0.93
2023-11-12T05:36:44.981Z,1.00
2023-11-12T05:39:16.574Z,0.77
2023-11-12T05:41:49.455Z,1.70
2023-11-12T05:44:19.697Z,1.50
2023-11-12T05:46:50.080Z,1.13
2023-11-12T05:49:20.796Z,1.30
2023-11-12T05:51:51.133Z,1.20
2023-11-12T05:54:21.336Z,1.00
2023-11-12T05:56:54.552Z,1.10
2023-11-12T05:59:24.742Z,1.10
2023-11-12T06:01:55.152Z,1.20
2023-11-12T06:04:25.526Z,1.10
2023-11-12T06:06:55.943Z,1.07
2023-11-12T06:09:26.474Z,0.95
2023-11-12T06:11:59.370Z,1.17
2023-11-12T06:14:29.555Z,1.00
2023-11-12T06:17:00.545Z,0.95
2023-11-12T06:19:31.015Z,1.20
2023-11-12T06:22:01.705Z,1.00
2023-11-12T06:24:32.051Z,1.08
2023-11-12T06:27:05.095Z,0.97
2023-11-12T06:29:37.210Z,0.90
2023-11-12T06:32:08.489Z,1.10
2023-11-12T06:34:38.969Z,1.00
2023-11-12T06:37:09.284Z,0.88
2023-11-12T06:39:39.582Z,1.03
2023-11-12T06:42:12.809Z,0.80
2023-11-12T06:44:43.732Z,1.10
2023-11-12T06:47:14.016Z,0.90
2023-11-12T06:49:44.509Z,0.90
2023-11-12T06:52:16.116Z,0.90
2023-11-12T06:54:46.470Z,0.90
2023-11-12T06:57:19.387Z,0.90
2023-11-12T06:59:49.681Z,1.10
2023-11-12T07:02:19.896Z,1.00
2023-11-12T07:04:50.890Z,0.88
2023-11-12T07:07:22.424Z,0.85
2023-11-12T07:09:52.982Z,0.98
2023-11-12T07:12:25.935Z,1.00
2023-11-12T07:14:56.203Z,0.90
2023-11-12T07:17:26.486Z,0.70
2023-11-12T07:19:57.394Z,0.90
2023-11-12T07:22:29.755Z,0.80
2023-11-12T07:25:01.742Z,0.80
2023-11-12T07:27:35.042Z,0.90
2023-11-12T07:30:05.840Z,0.98
2023-11-12T07:32:39.390Z,0.85
2023-11-12T07:35:10.905Z,0.80
2023-11-12T07:37:42.480Z,0.80
2023-11-12T07:40:17.135Z,1.00
2023-11-12T07:42:50.218Z,0.80
2023-11-12T07:45:25.341Z,0.80
2023-11-12T07:47:58.438Z,0.80
2023-11-12T07:50:29.729Z,0.80
2023-11-12T07:53:00.091Z,1.00
2023-11-12T07:55:32.691Z,0.90
2023-11-12T07:58:05.820Z,0.80
2023-11-12T08:00:36.145Z,1.02
2023-11-12T08:03:07.098Z,1.30
2023-11-12T08:05:37.670Z,1.00
2023-11-12T08:08:09.432Z,1.05
2023-11-12T08:10:40.844Z,1.15
2023-11-12T08:13:17.752Z,1.10
2023-11-12T08:15:48.163Z,1.10
2023-11-12T08:18:18.926Z,1.02
2023-11-12T08:20:49.885Z,0.88
2023-11-12T08:23:20.606Z,1.25
2023-11-12T08:25:50.996Z,0.80
2023-11-12T08:28:25.856Z,0.97
2023-11-12T08:30:56.764Z,0.85
2023-11-12T08:33:27.229Z,0.90
2023-11-12T08:35:58.323Z,0.98
2023-11-12T08:38:29.040Z,1.10
2023-11-12T08:40:59.789Z,0.93
2023-11-12T08:43:32.746Z,0.88
2023-11-12T08:46:03.669Z,1.13
2023-11-12T08:48:36.229Z,0.85
2023-11-12T08:51:06.865Z,0.80
2023-11-12T08:53:37.369Z,0.73
2023-11-12T08:56:08.949Z,1.13
2023-11-12T08:58:42.429Z,1.20
2023-11-12T09:01:13.740Z,1.38
2023-11-12T09:03:44.309Z,1.45
2023-11-12T09:06:15.084Z,3.97
2023-11-12T09:08:45.495Z,20.20
2023-11-12T09:11:17.221Z,24.67
2023-11-12T09:13:50.368Z,36.20
2023-11-12T09:16:21.155Z,40.17
2023-11-12T09:18:51.986Z,49.67
2023-11-12T09:21:22.743Z,58.92
2023-11-12T09:23:53.196Z,53.25
2023-11-12T09:26:24.812Z,80.18
2023-11-12T09:28:58.146Z,97.90
2023-11-12T09:31:29.721Z,71.75
2023-11-12T09:34:00.200Z,73.97
2023-11-12T09:36:31.305Z,69.80
2023-11-12T09:39:01.649Z,70.47
2023-11-12T09:41:32.973Z,98.53
2023-11-12T09:44:07.293Z,118.25
2023-11-12T09:46:38.400Z,102.47
2023-11-12T09:51:40.550Z,74.63
2023-11-12T09:54:12.722Z,69.50
2023-11-12T09:56:43.142Z,66.28
2023-11-12T09:59:16.352Z,67.15
2023-11-12T10:01:52.047Z,80.25
2023-11-12T10:04:23.203Z,64.18
2023-11-12T10:06:54.526Z,58.45
2023-11-12T10:09:31.393Z,57.50
2023-11-12T10:12:07.767Z,59.83
2023-11-12T10:14:42.376Z,53.20
2023-11-12T10:17:13.166Z,49.08
2023-11-12T10:19:43.472Z,46.58
2023-11-12T10:22:13.741Z,46.60
2023-11-12T10:24:49.944Z,45.10
2023-11-12T10:27:20.262Z,41.25
2023-11-12T10:29:53.465Z,41.07
2023-11-12T10:32:29.779Z,36.17
2023-11-12T10:35:00.129Z,37.88
2023-11-12T10:37:30.422Z,33.77
2023-11-12T10:40:09.968Z,33.20
2023-11-12T10:42:41.295Z,30.50
2023-11-12T10:45:17.581Z,34.03
2023-11-12T10:47:50.831Z,31.20
2023-11-12T10:50:21.423Z,26.95
2023-11-12T10:52:52.214Z,24.95
2023-11-12T10:55:24.652Z,23.52
2023-11-12T10:57:55.466Z,21.30
2023-11-12T11:00:30.524Z,19.75
2023-11-12T11:03:00.884Z,17.98
2023-11-12T11:05:32.057Z,16.60
2023-11-12T11:10:32.663Z,14.85
2023-11-12T11:13:02.981Z,14.05
2023-11-12T11:15:54.091Z,17.17
2023-11-12T11:18:55.170Z,15.48
2023-11-12T11:21:25.568Z,15.48
2023-11-12T11:23:57.473Z,15.13
2023-11-12T11:26:36.151Z,21.38
2023-11-12T11:29:19.594Z,24.52
2023-11-12T11:32:19.375Z,27.60
2023-11-12T11:34:50.114Z,27.55
2023-11-12T11:37:21.121Z,25.13
2023-11-12T11:39:51.753Z,24.60
2023-11-12T11:42:23.639Z,20.77
2023-11-12T11:44:51.385Z,18.80
2023-11-12T11:47:27.894Z,17.83
2023-11-12T11:50:45.633Z,16.58
2023-11-12T11:53:18.288Z,13.65
2023-11-12T11:55:56.047Z,13.70
2023-11-12T11:58:26.999Z,10.48
2023-11-12T12:01:03.417Z,11.02
2023-11-12T12:03:37.446Z,10.02
2023-11-12T12:06:19.008Z,9.20
2023-11-12T12:08:53.793Z,9.52
2023-11-12T12:11:26.304Z,8.32
2023-11-12T12:14:00.491Z,7.43
2023-11-12T12:16:31.476Z,7.38
2023-11-12T12:19:05.086Z,6.93
2023-11-12T12:21:35.955Z,6.60
2023-11-12T12:24:07.528Z,5.50
2023-11-12T12:26:38.955Z,5.20
2023-11-12T12:29:16.198Z,5.40
2023-11-12T12:31:47.131Z,5.03
2023-11-12T12:34:20.910Z,4.43
2023-11-12T12:37:04.620Z,3.88
2023-11-12T12:39:56.812Z,3.40
2023-11-12T12:42:29.218Z,3.33
2023-11-12T12:45:00.641Z,2.97
2023-11-12T12:47:35.837Z,3.55
2023-11-12T12:50:27.557Z,3.28
2023-11-12T12:53:16.989Z,6.88
2023-11-12T12:55:47.925Z,4.32
2023-11-12T13:00:49.417Z,4.23
2023-11-12T13:03:32.485Z,4.07
2023-11-12T13:06:09.547Z,4.20
2023-11-12T13:08:42.367Z,3.78
2023-11-12T13:11:12.738Z,3.45
2023-11-12T13:13:43.462Z,3.42
2023-11-12T13:16:13.899Z,3.13
2023-11-12T13:18:45.266Z,4.03
2023-11-12T13:21:20.133Z,3.53
2023-11-12T13:23:50.774Z,3.70
2023-11-12T13:26:22.940Z,3.80
2023-11-12T13:28:55.042Z,3.53
2023-11-12T13:31:26.629Z,3.17
2023-11-12T13:33:57.075Z,2.70
2023-11-12T13:36:30.253Z,2.72
2023-11-12T13:39:00.477Z,2.40
2023-11-12T13:41:31.397Z,2.70
2023-11-12T13:44:01.775Z,2.33
2023-11-12T13:46:33.309Z,2.22
2023-11-12T13:49:04.307Z,2.10
2023-11-12T13:51:37.608Z,1.92
2023-11-12T13:54:12.020Z,1.90
2023-11-12T13:56:43.176Z,1.80
2023-11-12T14:01:47.030Z,2.13
2023-11-12T14:04:17.601Z,1.85
2023-11-12T14:06:52.266Z,1.50
2023-11-12T14:09:22.848Z,2.13
2023-11-12T14:11:53.546Z,1.63
2023-11-12T14:14:23.947Z,1.70
2023-11-12T14:16:57.051Z,1.35
2023-11-12T14:19:28.812Z,1.50
2023-11-12T14:22:01.675Z,1.55
2023-11-12T14:24:32.349Z,1.75
2023-11-12T14:27:03.780Z,1.50
2023-11-12T14:29:34.295Z,1.52
2023-11-12T14:32:06.043Z,1.70
2023-11-12T14:34:36.609Z,1.40
2023-11-12T14:37:10.134Z,1.20
2023-11-12T14:39:41.571Z,1.50
2023-11-12T14:42:12.233Z,1.77
2023-11-12T14:44:42.816Z,1.38
2023-11-12T14:47:14.661Z,1.45
2023-11-12T14:49:47.389Z,1.30
2023-11-12T14:52:20.283Z,1.60
2023-11-12T14:54:50.810Z,1.27
2023-11-12T14:57:21.388Z,1.85
2023-11-12T14:59:51.780Z,1.20
2023-11-12T15:02:22.251Z,1.55
2023-11-12T15:04:52.654Z,1.20
2023-11-12T15:07:25.682Z,1.38
2023-11-12T15:09:56.266Z,1.40
2023-11-12T15:12:27.302Z,1.50
2023-11-12T15:17:28.869Z,1.83
2023-11-12T15:20:00.349Z,2.70
2023-11-12T15:22:33.713Z,4.75
2023-11-12T15:25:04.456Z,4.32
2023-11-12T15:27:34.852Z,5.00
2023-11-12T15:30:05.245Z,7.72
2023-11-12T15:32:35.729Z,8.90
2023-11-12T15:35:06.628Z,8.05
2023-11-12T15:37:41.948Z,7.00
2023-11-12T15:40:20.063Z,5.78
2023-11-12T15:42:53.125Z,5.00
2023-11-12T15:45:25.503Z,4.32
2023-11-12T15:47:56.729Z,4.35
2023-11-12T15:50:31.673Z,3.92
2023-11-12T15:53:04.905Z,3.72
2023-11-12T15:55:35.554Z,3.20
2023-11-12T15:58:07.047Z,3.13
2023-11-12T16:00:38.385Z,2.90
2023-11-12T16:03:18.180Z,3.13
2023-11-12T16:05:49.730Z,2.55
2023-11-12T16:08:25.133Z,2.50
2023-11-12T16:10:55.540Z,3.38
2023-11-12T16:13:26.371Z,3.22
2023-11-12T16:15:56.784Z,2.92
2023-11-12T16:18:27.569Z,3.22
2023-11-12T16:20:58.055Z,2.80
2023-11-12T16:23:31.113Z,5.88
2023-11-12T16:26:02.673Z,2.00
2023-11-12T16:28:33.686Z,2.00
2023-11-12T16:33:39.593Z,3.75
2023-11-12T16:36:11.184Z,4.43
2023-11-12T16:38:44.442Z,4.07
2023-11-12T16:41:15.359Z,20.30
2023-11-12T16:43:46.500Z,18.20
2023-11-12T16:48:48.125Z,8.75
2023-11-12T16:51:19.476Z,6.40
2023-11-12T16:53:52.994Z,5.60
2023-11-12T16:56:23.835Z,4.85
2023-11-12T16:58:57.869Z,4.70
2023-11-12T17:01:29.723Z,4.25
2023-11-12T17:04:01.186Z,6.28
2023-11-12T17:06:34.260Z,10.13
2023-11-12T17:09:10.644Z,14.88
2023-11-12T17:11:41.078Z,10.05
2023-11-12T17:14:12.482Z,7.85
2023-11-12T17:16:47.290Z,5.90
2023-11-12T17:19:18.612Z,5.50
2023-11-12T17:21:51.955Z,4.45
2023-11-12T17:24:25.291Z,3.42
2023-11-12T17:26:57.019Z,3.40
2023-11-12T17:29:28.475Z,2.85
2023-11-12T17:31:59.028Z,2.88
2023-11-12T17:34:29.730Z,3.38
2023-11-12T17:37:01.426Z,2.85
2023-11-12T17:39:34.682Z,2.22
2023-11-12T17:42:05.482Z,2.38
2023-11-12T17:44:36.481Z,2.10
2023-11-12T17:47:07.252Z,2.10
2023-11-12T17:49:38.009Z,2.08
2023-11-12T17:52:09.318Z,1.88
2023-11-12T17:54:43.301Z,2.97
2023-11-12T17:57:15.808Z,5.15
2023-11-12T17:59:46.683Z,4.15
2023-11-12T18:02:17.398Z,3.10
2023-11-12T18:04:48.093Z,2.85
2023-11-12T18:07:18.945Z,2.63
2023-11-12T18:09:52.474Z,2.40
2023-11-12T18:12:24.482Z,2.20
2023-11-12T18:14:56.795Z,2.22
2023-11-12T18:17:27.822Z,2.33
2023-11-12T18:22:32.292Z,1.70
2023-11-12T18:25:06.206Z,2.22
2023-11-12T18:27:37.555Z,1.48
2023-11-12T18:30:10.536Z,1.60
2023-11-12T18:32:41.886Z,1.50
2023-11-12T18:35:16.107Z,1.52
2023-11-12T18:37:51.707Z,1.75
2023-11-12T18:40:25.467Z,1.77
2023-11-12T18:42:57.926Z,1.40
2023-11-12T18:45:30.846Z,1.65
2023-11-12T18:48:03.980Z,1.25
2023-11-12T18:50:35.657Z,1.20
2023-11-12T18:53:07.341Z,1.70
2023-11-12T18:55:42.523Z,1.38
2023-11-12T18:58:15.521Z,1.33
2023-11-12T19:00:46.255Z,1.00
2023-11-12T19:03:16.938Z,0.90
2023-11-12T19:05:47.916Z,0.80
2023-11-12T19:08:19.268Z,0.73
2023-11-12T19:10:52.561Z,0.65
2023-11-12T19:13:28.407Z,0.80
2023-11-12T19:16:00.612Z,0.90
2023-11-12T19:18:32.726Z,0.82
2023-11-12T19:21:04.821Z,0.70
2023-11-12T19:23:40.861Z,0.80
2023-11-12T19:26:14.454Z,0.80
2023-11-12T19:28:46.881Z,0.80
2023-11-12T19:31:30.357Z,0.70
2023-11-12T19:34:06.089Z,0.80
2023-11-12T19:36:38.406Z,4.20
2023-11-12T19:39:14.674Z,2.65
2023-11-12T19:41:49.314Z,2.65
2023-11-12T19:44:21.791Z,2.00
2023-11-12T19:46:53.546Z,1.88
2023-11-12T19:49:25.903Z,1.70
2023-11-12T19:52:01.878Z,1.80
2023-11-12T19:54:36.440Z,2.17
2023-11-12T19:57:13.180Z,2.15
2023-11-12T19:59:49.603Z,1.65
2023-11-12T20:02:24.422Z,1.25
2023-11-12T20:04:59.087Z,1.20
2023-11-12T20:07:32.113Z,1.08
2023-11-12T20:10:06.618Z,1.00
2023-11-12T20:12:45.614Z,1.00
2023-11-12T20:15:20.230Z,0.80
2023-11-12T20:17:54.116Z,1.00
2023-11-12T20:20:28.628Z,0.70
2023-11-12T20:23:24.246Z,0.93
2023-11-12T20:25:56.683Z,1.38
2023-11-12T20:28:36.802Z,0.80
2023-11-12T20:31:14.254Z,0.80
2023-11-12T20:33:50.083Z,0.80
2023-11-12T20:36:22.154Z,0.70
2023-11-12T20:38:54.511Z,0.60
2023-11-12T20:41:28.202Z,0.80
2023-11-12T20:44:04.477Z,0.73
2023-11-12T20:46:38.242Z,0.68
2023-11-12T20:49:14.731Z,0.52
2023-11-12T20:51:49.586Z,0.38
2023-11-12T20:54:23.693Z,0.60
2023-11-12T20:56:55.421Z,0.60
2023-11-12T20:59:29.926Z,0.40
2023-11-12T21:02:10.040Z,0.40
2023-11-12T21:04:55.608Z,0.50
2023-11-12T21:07:27.338Z,0.40
2023-11-12T21:10:02.573Z,0.40
2023-11-12T21:12:34.321Z,0.40
2023-11-12T21:15:11.263Z,0.57
2023-11-12T21:17:47.199Z,0.60
2023-11-12T21:20:20.740Z,0.57
2023-11-12T21:22:52.529Z,0.50
2023-11-12T21:25:26.872Z,0.47
2023-11-12T21:27:59.817Z,0.60
2023-11-12T21:30:35.571Z,0.50
2023-11-12T21:33:07.386Z,0.50
2023-11-12T21:35:43.998Z,1.00
2023-11-12T21:38:18.068Z,0.50
2023-11-12T21:40:50.208Z,0.50
2023-11-12T21:43:24.689Z,0.50
2023-11-12T21:46:00.639Z,0.50
2023-11-12T21:48:32.634Z,0.60
2023-11-12T21:51:04.636Z,0.85
2023-11-12T21:53:39.499Z,1.15
2023-11-12T21:56:16.190Z,1.00
2023-11-12T21:58:48.078Z,0.70
2023-11-12T22:01:23.705Z,0.93
2023-11-12T22:04:02.890Z,0.68
2023-11-12T22:06:35.276Z,0.70
2023-11-12T22:09:17.401Z,1.42
2023-11-12T22:11:55.017Z,0.60
2023-11-12T22:14:27.828Z,0.65
2023-11-12T22:17:05.639Z,0.90
2023-11-12T22:19:39.998Z,0.80
2023-11-12T22:22:12.591Z,0.60
2023-11-12T22:24:45.234Z,0.80
2023-11-12T22:27:17.220Z,0.75
2023-11-12T22:29:49.332Z,0.52
2023-11-12T22:32:23.759Z,0.52
2023-11-12T22:34:58.374Z,0.60
2023-11-12T22:37:32.191Z,0.50
2023-11-12T22:40:05.085Z,0.50
2023-11-12T22:42:37.967Z,0.47
2023-11-12T22:45:13.088Z,0.57
2023-11-12T22:47:48.662Z,0.50
2023-11-12T22:50:24.761Z,0.60
2023-11-12T22:52:55.782Z,0.68
2023-11-12T22:58:02.340Z,0.68
2023-11-12T23:00:47.432Z,0.47
2023-11-12T23:03:22.831Z,0.50
2023-11-12T23:05:54.413Z,1.25
2023-11-12T23:08:25.809Z,0.60
2023-11-12T23:10:59.436Z,0.70
2023-11-12T23:13:30.895Z,0.43
2023-11-12T23:16:02.887Z,0.32
2023-11-12T23:18:36.733Z,0.57
2023-11-12T23:21:09.843Z,0.40
2023-11-12T23:23:41.157Z,0.50
2023-11-12T23:28:42.496Z,0.40
2023-11-12T23:31:13.954Z,0.45
2023-11-12T23:33:47.656Z,0.52
2023-11-12T23:36:18.398Z,0.52
2023-11-12T23:38:49.213Z,0.77
2023-11-12T23:41:19.814Z,0.40
2023-11-12T23:43:50.454Z,0.45
2023-11-12T23:46:21.165Z,0.45
2023-11-12T23:48:54.504Z,0.47
2023-11-12T23:51:25.235Z,0.47
2023-11-12T23:53:56.006Z,0.50
2023-11-12T23:56:27.348Z,0.40
2023-11-12T23:58:58.770Z,0.50
